Terminal Aerodrome Forecast
Issued by NWS Charleston, WV

Current Version | Previous Version | Graphics & Text | Print | Product List | Glossary On
Versions: 1 2 3 4 5 6 7 8 9 10 11 12 13 14 15 16 17 18 19 20 21
685
FTUS41 KRLX 091757 RRA
TAFCRW
TAF
KCRW 091757Z 0918/1018 25007KT 4SM -SHSN SCT015 OVC025
      TEMPO 0918/0922 2SM -SHSN BR OVC010
     FM092200 27008KT 4SM -SHSN OVC020
     FM100600 26009KT 5SM -SHSN OVC015
     FM101500 26008G15KT 4SM -SHSN BKN020=

USA.gov is the U.S. government's official web portal to all federal, state and local government web resources and services.